Time;durP1;ratioP1;P1;durP2;ratioP2;P2;SDS_P1;SDS_P2;PMS_P1;PMS_P2;Temp;Humidity;BMP_temperature;BMP_pressure;BME280_temperature;BME280_humidity;BME280_pressure;Samples;Min_cycle;Max_cycle;Signal;HPM_P1;HPM_P2
2023/02/18 00:01:35;;;;;;;0.50;0.50;;;13.00;73.40;;;12.92;59.99;95171.38;4973436;28;20649;-17
2023/02/18 00:04:02;;;;;;;0.50;0.50;;;12.90;73.60;;;12.88;59.83;95167.53;4974107;28;20208;-17
2023/02/18 00:06:33;;;;;;;0.43;0.43;;;12.90;73.60;;;12.87;59.76;95165.91;4973190;28;20234;-17
2023/02/18 00:09:03;;;;;;;0.50;0.50;;;12.90;73.60;;;12.87;60.11;95164.06;4974270;28;20189;-17
2023/02/18 00:11:33;;;;;;;0.60;0.60;;;12.90;73.70;;;12.84;60.08;95179.44;4974072;28;20228;-17
2023/02/18 00:14:03;;;;;;;0.60;0.60;;;12.90;73.80;;;12.86;60.22;95180.84;4974247;28;20183;-18
2023/02/18 00:16:31;;;;;;;0.50;0.50;;;12.90;74.00;;;12.79;60.56;95164.25;4974553;28;20578;-18
2023/02/18 00:19:02;;;;;;;0.60;0.60;;;12.80;74.00;;;12.77;60.41;95177.59;4974039;28;20202;-17
2023/02/18 00:21:31;;;;;;;0.60;0.60;;;12.80;74.10;;;12.82;60.41;95198.06;4973994;28;20183;-18
2023/02/18 00:23:59;;;;;;;0.60;0.60;;;12.80;74.20;;;12.76;60.62;95181.25;4974194;28;20194;-18
2023/02/18 00:26:27;;;;;;;0.60;0.60;;;12.80;74.30;;;12.81;60.48;95181.44;4973136;28;20202;-17
2023/02/18 00:28:54;;;;;;;0.60;0.60;;;12.80;74.30;;;12.80;60.65;95176.38;4974110;28;20242;-17
2023/02/18 00:31:23;;;;;;;0.60;0.60;;;12.80;74.30;;;12.85;60.75;95179.22;4973767;28;20225;-17
2023/02/18 00:33:51;;;;;;;0.60;0.60;;;12.80;74.30;;;12.85;60.57;95173.97;4972864;28;20202;-17
2023/02/18 00:36:21;;;;;;;0.50;0.50;;;12.80;74.30;;;12.91;60.59;95185.53;4973839;28;20202;-17
2023/02/18 00:38:52;;;;;;;0.60;0.60;;;12.90;74.30;;;12.88;60.46;95192.00;4973728;28;20526;-17
2023/02/18 00:41:21;;;;;;;0.60;0.60;;;12.90;74.30;;;12.92;60.67;95189.78;4972821;28;20194;-17
2023/02/18 00:43:48;;;;;;;0.60;0.60;;;12.90;74.30;;;12.86;60.58;95186.13;4972731;28;20209;-17
2023/02/18 00:46:19;;;;;;;0.52;0.52;;;12.90;74.20;;;12.87;60.59;95187.75;4972560;28;20206;-17
2023/02/18 00:48:46;;;;;;;0.60;0.60;;;12.90;74.20;;;12.85;60.65;95184.50;4973627;28;20263;-19
2023/02/18 00:51:13;;;;;;;0.50;0.50;;;12.90;74.20;;;12.87;60.78;95194.84;4973518;28;20214;-17
2023/02/18 00:53:41;;;;;;;0.50;0.50;;;12.90;74.10;;;12.90;60.51;95173.38;4973634;28;20201;-17
2023/02/18 00:56:08;;;;;;;0.60;0.60;;;13.00;74.20;;;12.94;60.35;95208.84;4973338;28;20636;-17
2023/02/18 00:58:36;;;;;;;0.60;0.60;;;13.00;74.20;;;12.93;60.34;95175.63;4973481;28;20194;-18
2023/02/18 01:01:05;;;;;;;0.50;0.50;;;12.90;74.00;;;12.98;59.98;95181.88;4973469;28;20272;-17
2023/02/18 01:03:35;;;;;;;0.60;0.60;;;13.00;74.00;;;13.01;59.93;95174.63;4972601;28;20194;-18
2023/02/18 01:06:04;;;;;;;0.50;0.50;;;13.00;73.80;;;12.98;59.92;95194.25;4972132;28;20230;-17
2023/02/18 01:08:33;;;;;;;0.45;0.45;;;13.00;73.70;;;12.92;60.08;95185.31;4973359;28;20194;-17
2023/02/18 01:11:00;;;;;;;0.50;0.50;;;13.00;73.70;;;12.91;60.02;95161.84;4972340;28;20214;-17
2023/02/18 01:13:28;;;;;;;0.50;0.50;;;13.00;73.80;;;12.88;60.18;95152.53;4973320;28;20224;-17
2023/02/18 01:15:55;;;;;;;0.50;0.50;;;12.90;73.80;;;12.87;60.21;95173.78;4972622;28;20205;-18
2023/02/18 01:18:25;;;;;;;0.50;0.50;;;12.90;73.70;;;12.83;60.26;95165.47;4973253;28;20213;-17
2023/02/18 01:20:52;;;;;;;0.50;0.50;;;12.90;73.90;;;12.79;60.43;95167.69;4973261;28;20197;-17
2023/02/18 01:23:19;;;;;;;0.50;0.50;;;12.80;73.90;;;12.81;60.51;95173.56;4972250;28;20202;-17
2023/02/18 01:25:47;;;;;;;0.70;0.70;;;12.80;74.10;;;12.77;60.57;95171.53;4972019;28;20549;-17
2023/02/18 01:28:15;;;;;;;0.60;0.60;;;12.80;74.20;;;12.73;60.53;95171.13;4973120;28;20209;-17
2023/02/18 01:30:43;;;;;;;0.60;0.60;;;12.80;74.20;;;12.77;60.50;95163.66;4973217;28;20253;-17
2023/02/18 01:33:10;;;;;;;0.70;0.70;;;12.80;74.20;;;12.76;60.49;95165.44;4973052;28;20190;-17
2023/02/18 01:35:39;;;;;;;0.80;0.80;;;12.80;74.20;;;12.79;60.30;95167.69;4971893;28;20259;-18
2023/02/18 01:38:07;;;;;;;0.60;0.60;;;12.80;74.10;;;12.76;60.55;95168.09;4972950;28;20190;-17
2023/02/18 01:40:35;;;;;;;0.60;0.60;;;12.90;74.20;;;12.81;60.56;95167.50;4972137;28;20190;-17
2023/02/18 01:43:03;;;;;;;0.60;0.60;;;12.90;74.30;;;12.77;60.59;95153.91;4972141;28;20195;-17
2023/02/18 01:45:33;;;;;;;0.60;0.60;;;12.80;74.30;;;12.76;60.68;95149.66;4971787;28;20203;-17
2023/02/18 01:48:56;;;;;;;0.57;0.57;;;12.80;74.30;;;12.75;60.55;95155.94;4971943;28;20198;-17
2023/02/18 01:51:31;;;;;;;0.60;0.60;;;12.80;74.30;;;12.79;60.54;95172.97;4936298;29;20219;-17
2023/02/18 01:54:09;;;;;;;0.50;0.50;;;12.80;74.20;;;12.79;60.75;95164.25;4972383;28;20212;-17
2023/02/18 01:56:52;;;;;;;0.60;0.60;;;12.80;74.20;;;12.73;60.67;95157.13;4972695;28;20193;-17
2023/02/18 01:59:30;;;;;;;0.60;0.60;;;12.80;74.30;;;12.76;60.58;95148.84;4972328;28;20289;-17
2023/02/18 02:01:58;;;;;;;0.60;0.60;;;12.80;74.30;;;12.74;60.65;95150.88;4971907;28;20209;-17
2023/02/18 02:04:28;;;;;;;0.60;0.60;;;12.80;74.40;;;12.74;60.85;95142.97;4972772;28;20184;-17
2023/02/18 02:06:56;;;;;;;0.60;0.60;;;12.80;74.40;;;12.73;60.86;95143.97;4971444;28;20246;-17
2023/02/18 02:09:26;;;;;;;0.60;0.60;;;12.80;74.40;;;12.77;60.64;95142.59;4972656;28;20190;-17
2023/02/18 02:12:23;;;;;;;0.60;0.60;;;12.80;74.50;;;12.76;60.97;95133.88;4972600;28;20198;-17
2023/02/18 02:15:02;;;;;;;0.60;0.60;;;12.80;74.50;;;12.76;60.98;95169.91;4972651;28;20189;-17
2023/02/18 02:18:26;;;;;;;0.40;0.40;;;12.70;74.40;;;12.66;61.05;95120.28;4972666;28;20193;-17
2023/02/18 02:21:26;;;;;;;0.60;0.60;;;12.80;74.60;;;12.67;61.29;95145.59;4968300;28;20650;-17
2023/02/18 02:24:48;;;;;;;0.50;0.50;;;12.70;74.60;;;12.65;60.88;95126.56;4972803;28;20187;-17
2023/02/18 02:27:31;;;;;;;0.65;0.65;;;12.70;74.50;;;12.60;61.24;95142.16;4936719;28;20239;-17
2023/02/18 02:30:27;;;;;;;0.60;0.60;;;12.70;74.70;;;12.49;61.63;95144.31;4939193;29;20183;-17
2023/02/18 02:33:05;;;;;;;0.60;0.60;;;12.70;75.10;;;12.50;61.60;95113.59;4970987;28;20230;-17
2023/02/18 02:36:09;;;;;;;0.70;0.70;;;12.70;74.70;;;12.46;61.60;95109.72;4975532;28;20229;-18
2023/02/18 02:38:57;;;;;;;0.60;0.60;;;12.60;74.60;;;12.52;61.31;95121.28;4974751;28;20593;-18
2023/02/18 02:41:46;;;;;;;0.60;0.60;;;12.60;74.60;;;12.54;61.32;95120.06;4975508;28;20596;-18
2023/02/18 02:44:18;;;;;;;0.60;0.60;;;12.60;74.60;;;12.48;61.47;95118.22;4958857;28;20187;-18
2023/02/18 02:46:50;;;;;;;0.60;0.60;;;12.70;74.70;;;12.57;60.97;95134.63;4974298;28;20295;-18
2023/02/18 02:49:40;;;;;;;0.60;0.60;;;12.70;74.70;;;12.56;61.22;95140.91;4958578;28;20198;-18
2023/02/18 02:52:16;;;;;;;0.60;0.60;;;12.60;74.70;;;12.58;61.09;95126.53;4975355;28;20202;-18
2023/02/18 02:54:43;;;;;;;0.70;0.70;;;12.60;75.50;;;12.57;60.88;95124.94;4974629;28;20269;-18
2023/02/18 02:57:16;;;;;;;0.68;0.68;;;12.60;74.70;;;12.64;60.75;95154.69;4974207;28;20679;-18
2023/02/18 03:00:43;;;;;;;0.73;0.73;;;12.60;74.70;;;12.58;61.10;95128.38;4953317;28;20214;-18
2023/02/18 03:04:04;;;;;;;0.80;0.80;;;12.60;74.80;;;12.54;61.03;95135.03;4965674;28;20623;-18
2023/02/18 03:06:46;;;;;;;0.65;0.65;;;12.60;74.70;;;12.55;61.34;95129.56;4973909;28;20246;-18
2023/02/18 03:09:26;;;;;;;0.50;0.50;;;12.60;74.70;;;12.55;61.60;95139.28;4975513;28;20187;-18
2023/02/18 03:12:05;;;;;;;0.60;0.60;;;12.60;74.80;;;12.53;61.44;95138.69;4974093;28;20228;-18
2023/02/18 03:14:45;;;;;;;0.60;0.60;;;12.60;74.80;;;12.57;61.02;95140.72;4974157;28;20209;-18
2023/02/18 03:17:30;;;;;;;0.60;0.60;;;12.60;74.90;;;12.51;61.57;95138.06;4973920;28;20201;-18
2023/02/18 03:20:11;;;;;;;0.50;0.50;;;12.60;75.10;;;12.54;61.67;95142.94;4958082;28;20202;-18
2023/02/18 03:22:45;;;;;;;0.50;0.50;;;12.60;75.00;;;12.56;61.63;95136.47;4974393;28;20182;-18
2023/02/18 03:25:15;;;;;;;0.60;0.60;;;12.60;75.00;;;12.53;61.87;95143.94;4974527;28;20288;-18
2023/02/18 03:28:01;;;;;;;0.80;0.80;;;12.60;75.10;;;12.45;62.04;95145.75;4974111;28;20500;-18
2023/02/18 03:30:49;;;;;;;0.60;0.60;;;12.60;75.20;;;12.49;62.43;95148.78;4975098;28;20277;-18
2023/02/18 03:33:34;;;;;;;0.60;0.60;;;12.50;76.40;;;12.41;62.71;95141.88;4957891;28;20199;-18
2023/02/18 03:36:02;;;;;;;0.70;0.70;;;12.50;75.80;;;12.38;62.60;95147.53;4973950;28;20483;-18
2023/02/18 03:38:37;;;;;;;0.80;0.80;;;12.40;75.70;;;12.41;62.52;95141.06;4974339;28;20202;-18
2023/02/18 03:41:05;;;;;;;0.60;0.60;;;12.40;75.60;;;12.37;62.52;95145.09;4974304;28;20189;-18
2023/02/18 03:43:33;;;;;;;0.60;0.60;;;12.50;76.40;;;12.46;62.35;95159.69;4958112;28;20285;-18
2023/02/18 03:46:02;;;;;;;0.60;0.60;;;12.50;75.50;;;12.43;62.32;95144.31;4974387;28;20195;-19
2023/02/18 03:48:29;;;;;;;0.60;0.60;;;12.50;75.50;;;12.53;61.88;95176.31;4974737;28;20202;-18
2023/02/18 03:50:56;;;;;;;0.60;0.60;;;12.50;75.40;;;12.45;61.82;95150.19;4974892;28;20508;-18
2023/02/18 03:53:23;;;;;;;0.47;0.47;;;12.60;75.50;;;12.52;61.82;95147.59;4973476;28;20205;-18
2023/02/18 03:55:50;;;;;;;0.63;0.63;;;12.50;75.40;;;12.55;61.82;95153.25;4974151;28;20662;-19
2023/02/18 03:58:17;;;;;;;0.60;0.60;;;12.50;75.30;;;12.58;61.73;95144.94;4974486;28;20198;-17
2023/02/18 04:00:44;;;;;;;0.60;0.60;;;12.60;75.30;;;12.60;61.51;95153.47;4974320;28;20202;-18
2023/02/18 04:03:11;;;;;;;0.60;0.60;;;12.60;75.20;;;12.62;61.52;95148.00;4974273;28;20661;-18
2023/02/18 04:05:38;;;;;;;0.50;0.50;;;12.70;75.10;;;12.63;61.44;95141.72;4973939;28;20251;-18
2023/02/18 04:08:05;;;;;;;0.70;0.70;;;12.60;75.00;;;12.68;61.05;95146.41;4974383;28;20622;-18
2023/02/18 04:10:32;;;;;;;0.60;0.60;;;12.70;75.00;;;12.62;61.38;95146.19;4974422;28;20569;-19
2023/02/18 04:12:59;;;;;;;0.50;0.50;;;12.70;75.00;;;12.64;61.39;95156.50;4974107;28;20229;-18
2023/02/18 04:15:27;;;;;;;0.50;0.50;;;12.70;75.00;;;12.67;61.11;95164.03;4974051;28;20220;-18
2023/02/18 04:17:54;;;;;;;0.50;0.50;;;12.70;75.00;;;12.58;61.59;95152.84;4974158;28;20205;-18
2023/02/18 04:20:21;;;;;;;0.60;0.60;;;12.70;75.00;;;12.59;61.37;95159.75;4974030;28;20190;-18
2023/02/18 04:22:48;;;;;;;0.50;0.50;;;12.70;75.10;;;12.60;61.07;95169.25;4974247;28;20519;-20
2023/02/18 04:25:15;;;;;;;0.55;0.55;;;12.60;75.00;;;12.65;61.08;95160.78;4973968;28;20252;-18
2023/02/18 04:27:42;;;;;;;0.50;0.50;;;12.70;74.90;;;12.65;60.81;95158.16;4973831;28;20194;-18
2023/02/18 04:30:10;;;;;;;0.52;0.52;;;12.70;74.80;;;12.73;60.87;95165.88;4973864;28;20202;-18
2023/02/18 04:32:37;;;;;;;0.60;0.60;;;12.70;74.80;;;12.68;60.95;95165.63;4973833;28;20242;-18
2023/02/18 04:35:05;;;;;;;0.50;0.50;;;12.70;74.70;;;12.66;60.91;95162.41;4973817;28;20205;-18
2023/02/18 04:37:32;;;;;;;0.80;0.80;;;12.70;74.70;;;12.67;61.02;95169.28;4973670;28;20213;-18
2023/02/18 04:39:59;;;;;;;0.60;0.60;;;12.70;74.80;;;12.61;61.29;95176.16;4973749;28;20194;-17
2023/02/18 04:42:26;;;;;;;0.50;0.50;;;12.70;74.90;;;12.60;61.37;95171.09;4973745;28;20212;-18
2023/02/18 04:44:53;;;;;;;0.50;0.50;;;12.70;74.90;;;12.56;61.43;95170.69;4973770;28;20198;-18
2023/02/18 04:47:20;;;;;;;0.60;0.60;;;12.70;75.70;;;12.60;61.07;95165.81;4973572;28;20194;-18
2023/02/18 04:49:47;;;;;;;0.60;0.60;;;12.60;74.80;;;12.60;61.11;95166.63;4971924;28;20211;-17
2023/02/18 04:52:14;;;;;;;0.60;0.60;;;12.70;74.90;;;12.60;60.96;95174.53;4973619;28;20237;-18
2023/02/18 04:54:42;;;;;;;0.50;0.50;;;12.70;74.90;;;12.59;61.63;95159.75;4973547;28;20242;-18
2023/02/18 04:57:09;;;;;;;0.60;0.60;;;12.70;75.00;;;12.57;61.92;95172.31;4973329;28;20213;-18
2023/02/18 04:59:36;;;;;;;0.50;0.50;;;12.70;75.30;;;12.49;63.32;95183.00;4973479;28;20208;-18
2023/02/18 05:02:04;;;;;;;0.70;0.70;;;12.70;76.30;;;12.38;63.54;95171.22;4973474;28;20209;-18
2023/02/18 05:04:31;;;;;;;0.60;0.60;;;12.60;76.40;;;12.32;64.25;95179.88;4973391;28;20220;-18
2023/02/18 05:06:58;;;;;;;0.50;0.50;;;12.50;76.40;;;12.31;64.14;95183.53;4972998;28;20241;-18
2023/02/18 05:09:25;;;;;;;0.60;0.60;;;12.50;76.40;;;12.28;64.56;95176.00;4973597;28;20263;-18
2023/02/18 05:11:52;;;;;;;0.63;0.63;;;12.40;76.30;;;12.15;64.88;95174.94;4973203;28;20214;-18
2023/02/18 05:14:19;;;;;;;0.60;0.60;;;12.40;76.40;;;12.10;64.77;95168.66;4973284;28;20198;-18
2023/02/18 05:16:46;;;;;;;0.60;0.60;;;12.30;76.70;;;12.07;65.16;95166.41;4973102;28;20201;-19
2023/02/18 05:19:15;;;;;;;0.60;0.60;;;12.20;76.60;;;12.04;64.91;95164.19;4973172;28;20209;-18
2023/02/18 05:21:42;;;;;;;0.50;0.50;;;12.20;76.80;;;11.96;65.04;95163.34;4973323;28;20295;-18
2023/02/18 05:24:09;;;;;;;0.50;0.50;;;12.20;77.10;;;11.94;65.53;95175.03;4972618;28;20506;-18
2023/02/18 05:26:36;;;;;;;0.60;0.60;;;12.10;78.10;;;11.93;65.53;95170.78;4972386;28;20217;-18
2023/02/18 05:29:03;;;;;;;0.52;0.52;;;12.00;77.40;;;11.92;65.34;95172.56;4973342;28;20198;-18
2023/02/18 05:31:31;;;;;;;0.55;0.55;;;12.00;77.30;;;11.94;65.05;95180.28;4973041;28;20281;-18
2023/02/18 05:33:58;;;;;;;0.60;0.60;;;12.00;77.30;;;11.90;64.92;95168.50;4972137;28;20198;-18
2023/02/18 05:36:25;;;;;;;0.60;0.60;;;12.00;77.30;;;11.91;64.74;95163.06;4972909;28;20217;-18
2023/02/18 05:38:53;;;;;;;0.60;0.60;;;12.10;77.30;;;11.89;64.70;95164.25;4973013;28;20205;-18
2023/02/18 05:41:20;;;;;;;0.60;0.60;;;12.00;77.10;;;11.92;64.51;95166.50;4973004;28;20198;-18
2023/02/18 05:46:33;;;;;;;0.70;0.70;;;12.00;76.90;;;11.94;64.00;95162.69;4972452;28;20186;-18
2023/02/18 05:49:00;;;;;;;0.60;0.60;;;12.00;76.70;;;12.00;63.53;95167.19;4973110;28;20209;-18
2023/02/18 05:51:27;;;;;;;0.70;0.70;;;12.00;76.60;;;12.04;63.43;95172.88;4972766;28;20198;-18
2023/02/18 05:53:54;;;;;;;0.80;0.80;;;12.10;76.50;;;12.06;63.28;95159.53;4973438;28;20199;-18
2023/02/18 05:56:22;;;;;;;0.65;0.65;;;12.10;76.30;;;12.06;63.30;95165.63;4972735;28;20205;-20
2023/02/18 05:58:48;;;;;;;0.60;0.60;;;12.10;76.20;;;12.07;63.36;95183.00;4972743;28;20198;-18
2023/02/18 06:01:16;;;;;;;0.60;0.60;;;12.10;76.10;;;12.11;63.03;95173.72;4957401;28;20502;-18
2023/02/18 06:03:43;;;;;;;0.50;0.50;;;12.10;76.10;;;12.13;62.93;95174.34;4976108;28;20201;-18
2023/02/18 06:06:10;;;;;;;0.60;0.60;;;12.10;76.10;;;12.14;62.76;95168.06;4959054;28;20238;-18
2023/02/18 06:08:37;;;;;;;0.60;0.60;;;12.20;76.10;;;12.16;62.93;95173.13;4959452;28;20190;-18
2023/02/18 06:11:04;;;;;;;0.60;0.60;;;12.20;76.10;;;12.15;62.91;95171.50;4975976;28;20634;-18
2023/02/18 06:13:32;;;;;;;0.80;0.80;;;12.20;76.10;;;12.18;62.41;95181.63;4975789;28;20685;-18
2023/02/18 06:15:59;;;;;;;0.70;0.70;;;12.20;76.10;;;12.23;62.28;95181.03;4959266;28;20194;-18
2023/02/18 06:18:26;;;;;;;0.60;0.60;;;12.20;76.10;;;12.24;62.37;95172.16;4974878;28;20263;-18
2023/02/18 06:20:53;;;;;;;0.60;0.60;;;12.20;76.10;;;12.24;62.47;95174.78;4959385;28;20532;-18
2023/02/18 06:23:20;;;;;;;0.60;0.60;;;12.20;76.10;;;12.28;62.29;95194.41;4974868;28;20678;-19
2023/02/18 06:25:49;;;;;;;0.60;0.60;;;12.30;76.20;;;12.31;62.26;95170.38;4975768;28;20198;-18
2023/02/18 06:28:17;;;;;;;0.63;0.63;;;12.30;76.20;;;12.31;61.99;95170.38;4975914;28;20210;-18
2023/02/18 06:30:44;;;;;;;0.70;0.70;;;12.30;76.20;;;12.37;61.72;95180.09;4975733;28;20209;-19
2023/02/18 06:33:12;;;;;;;0.70;0.70;;;12.40;76.20;;;12.38;62.05;95168.56;4975644;28;20222;-19
2023/02/18 06:35:39;;;;;;;0.60;0.60;;;12.40;76.30;;;12.41;62.27;95188.41;4958917;28;20213;-19
2023/02/18 06:38:07;;;;;;;0.50;0.50;;;12.40;76.30;;;12.38;62.09;95173.84;4975438;28;20190;-19
2023/02/18 06:40:34;;;;;;;0.70;0.70;;;12.40;76.20;;;12.39;62.01;95178.09;4974990;28;20183;-19
2023/02/18 06:43:01;;;;;;;0.60;0.60;;;12.50;76.10;;;12.42;62.08;95180.31;4975586;28;20198;-19
2023/02/18 06:45:28;;;;;;;0.80;0.80;;;12.50;76.00;;;12.41;62.86;95168.16;4975779;28;20202;-19
2023/02/18 06:47:55;;;;;;;0.60;0.60;;;12.50;76.40;;;12.45;62.86;95171.22;4975687;28;20292;-19
2023/02/18 06:50:22;;;;;;;0.63;0.63;;;12.50;76.40;;;12.39;62.74;95167.56;4975506;28;20227;-19
2023/02/18 06:52:49;;;;;;;0.70;0.70;;;12.50;76.40;;;12.43;62.51;95179.31;4975829;28;20223;-19
2023/02/18 06:55:16;;;;;;;0.50;0.50;;;12.60;76.20;;;12.46;62.01;95175.47;4975308;28;20194;-19
2023/02/18 06:57:43;;;;;;;0.70;0.70;;;12.60;75.80;;;12.48;62.24;95169.00;4975075;28;20540;-19
2023/02/18 07:00:10;;;;;;;0.57;0.57;;;12.60;76.20;;;12.43;62.96;95175.88;4975270;28;20528;-19
2023/02/18 07:02:37;;;;;;;0.60;0.60;;;12.50;76.40;;;12.41;62.81;95167.38;4975472;28;20206;-19
2023/02/18 07:05:04;;;;;;;0.60;0.60;;;12.50;76.40;;;12.38;62.72;95160.69;4974604;28;20573;-19
2023/02/18 07:07:31;;;;;;;0.60;0.60;;;12.50;76.40;;;12.40;62.80;95166.56;4975054;28;20240;-19
2023/02/18 07:09:58;;;;;;;0.60;0.60;;;12.50;76.10;;;12.37;61.98;95169.59;4975092;28;20634;-19
2023/02/18 07:12:26;;;;;;;0.80;0.80;;;12.50;75.80;;;12.42;62.08;95171.63;4974341;28;20267;-19
2023/02/18 07:14:52;;;;;;;0.80;0.80;;;12.50;75.70;;;12.44;61.85;95180.94;4975066;28;20190;-19
2023/02/18 07:17:19;;;;;;;0.60;0.60;;;12.50;75.70;;;12.42;61.42;95171.63;4974838;28;20194;-19
2023/02/18 07:19:46;;;;;;;0.50;0.50;;;12.50;75.60;;;12.51;61.39;95177.53;4974967;28;20190;-19
2023/02/18 07:22:14;;;;;;;0.50;0.50;;;12.60;75.50;;;12.53;61.30;95151.84;4974900;28;20259;-19
2023/02/18 07:24:41;;;;;;;0.70;0.70;;;12.60;75.50;;;12.60;61.09;95168.47;4974881;28;20199;-19
2023/02/18 07:27:08;;;;;;;0.60;0.60;;;12.60;75.40;;;12.67;60.66;95158.75;4974785;28;20206;-19
2023/02/18 07:29:35;;;;;;;0.60;0.60;;;12.70;75.20;;;12.72;60.36;95166.03;4974850;28;20642;-19
2023/02/18 07:32:02;;;;;;;0.80;0.80;;;12.80;75.00;;;12.72;60.26;95166.03;4974726;28;20689;-19
2023/02/18 07:34:29;;;;;;;0.60;0.60;;;12.80;74.90;;;12.75;60.22;95161.19;4974730;28;20228;-19
2023/02/18 07:36:56;;;;;;;0.60;0.60;;;12.80;74.70;;;12.80;60.41;95156.16;4973942;28;20198;-19
2023/02/18 07:39:24;;;;;;;0.70;0.70;;;12.80;74.90;;;12.89;59.75;95156.78;4974656;28;20210;-19
2023/02/18 07:41:51;;;;;;;0.70;0.70;;;12.90;74.60;;;12.95;59.80;95139.34;4974620;28;20190;-19
2023/02/18 07:44:17;;;;;;;0.60;0.60;;;12.90;74.50;;;13.00;59.42;95155.38;4974565;28;20194;-19
2023/02/18 07:46:44;;;;;;;0.60;0.60;;;13.00;74.30;;;13.02;59.27;95150.72;4974771;28;20214;-19
2023/02/18 07:49:14;;;;;;;0.50;0.50;;;13.10;74.00;;;13.04;59.03;95148.69;4974605;28;20199;-19
2023/02/18 07:51:41;;;;;;;0.60;0.60;;;13.20;74.00;;;13.05;59.36;95145.06;4974707;28;20216;-19
2023/02/18 07:54:08;;;;;;;0.60;0.60;;;13.10;73.90;;;13.14;58.65;95156.19;4974338;28;20646;-17
2023/02/18 07:56:35;;;;;;;0.60;0.60;;;13.20;73.90;;;13.17;58.85;95150.53;4974393;28;20201;-17
2023/02/18 07:59:02;;;;;;;0.50;0.50;;;13.20;73.90;;;13.28;58.55;95146.47;4974241;28;20274;-16
2023/02/18 08:01:29;;;;;;;0.60;0.60;;;13.30;73.70;;;13.36;57.91;95159.44;4973483;28;20205;-17
2023/02/18 08:03:56;;;;;;;0.60;0.60;;;13.40;73.20;;;13.42;57.92;95147.31;4974264;28;20531;-17
2023/02/18 08:06:33;;;;;;;0.60;0.60;;;13.50;73.30;;;13.40;57.74;95149.34;4974204;28;20226;-17
2023/02/18 08:09:00;;;;;;;0.65;0.65;;;13.50;73.00;;;13.44;57.40;95129.50;4973261;28;20179;-17
2023/02/18 08:11:27;;;;;;;0.45;0.45;;;13.50;72.80;;;13.43;57.69;95133.94;4974343;28;20637;-21
2023/02/18 08:13:54;;;;;;;0.50;0.50;;;13.50;72.80;;;13.47;57.55;95136.19;4974735;28;20229;-17
2023/02/18 08:16:21;;;;;;;0.60;0.60;;;13.50;72.70;;;13.49;57.13;95134.13;4974122;28;20187;-17
2023/02/18 08:18:50;;;;;;;0.70;0.70;;;13.60;72.50;;;13.54;57.18;95118.53;4973884;28;20244;-17
2023/02/18 08:21:20;;;;;;;0.60;0.60;;;13.60;72.50;;;13.65;57.34;95120.53;4974029;28;20205;-17
2023/02/18 08:23:47;;;;;;;0.50;0.50;;;13.70;72.60;;;13.74;57.43;95119.31;4972823;28;20202;-17
2023/02/18 08:26:15;;;;;;;0.40;0.40;;;13.80;72.60;;;13.87;55.96;95109.75;4973256;28;20190;-17
2023/02/18 08:28:43;;;;;;;0.60;0.60;;;13.90;71.90;;;13.97;55.73;95109.31;4973786;28;20507;-17
2023/02/18 08:31:28;;;;;;;0.80;0.80;;;14.00;71.60;;;13.96;55.91;95097.94;4974098;28;20695;-17
2023/02/18 08:33:59;;;;;;;0.70;0.70;;;14.00;71.70;;;13.98;55.69;95114.38;4974101;28;20206;-17
2023/02/18 08:36:27;;;;;;;0.60;0.60;;;14.00;71.40;;;13.98;56.03;95108.28;4973940;28;20277;-18
2023/02/18 08:38:54;;;;;;;0.50;0.50;;;14.10;71.60;;;14.05;55.29;95107.25;4973637;28;20252;-17
2023/02/18 08:41:21;;;;;;;0.60;0.60;;;14.10;71.00;;;13.98;55.31;95088.00;4973755;28;20190;-18
2023/02/18 08:43:48;;;;;;;0.60;0.60;;;14.10;71.10;;;13.93;55.81;95104.44;4973705;28;20198;-18
2023/02/18 08:46:16;;;;;;;0.60;0.60;;;14.10;71.00;;;13.91;55.50;95101.22;4973698;28;20198;-17
2023/02/18 08:49:02;;;;;;;0.60;0.60;;;14.10;71.00;;;13.90;56.11;95085.59;4973572;28;20186;-17
2023/02/18 08:51:30;;;;;;;0.50;0.50;;;14.00;71.40;;;13.91;56.05;95092.47;4972774;28;20230;-17
2023/02/18 08:53:57;;;;;;;0.60;0.60;;;14.00;71.30;;;13.97;55.90;95093.47;4973464;28;20225;-17
2023/02/18 08:56:24;;;;;;;0.60;0.60;;;14.10;71.40;;;13.97;55.83;95096.13;4973552;28;20257;-17
2023/02/18 08:58:51;;;;;;;0.52;0.52;;;14.10;71.00;;;14.01;55.90;95098.13;4973408;28;20194;-17
2023/02/18 09:01:19;;;;;;;0.50;0.50;;;14.10;71.10;;;14.03;55.31;95092.66;4973767;28;20252;-17
2023/02/18 09:03:47;;;;;;;0.73;0.73;;;14.20;70.90;;;13.99;55.70;95094.06;4973713;28;20553;-17
2023/02/18 09:06:14;;;;;;;0.50;0.50;;;14.20;71.10;;;14.06;55.06;95118.59;4973532;28;20233;-17
2023/02/18 09:08:41;;;;;;;0.40;0.40;;;14.20;70.90;;;14.12;55.66;95107.19;4973240;28;20288;-18
2023/02/18 09:11:09;;;;;;;0.50;0.50;;;14.20;71.00;;;14.14;55.35;95089.34;4973472;28;20216;-18
2023/02/18 09:13:37;;;;;;;0.50;0.50;;;14.30;70.90;;;14.14;55.25;95104.38;4973516;28;20397;-17
2023/02/18 09:16:13;;;;;;;0.70;0.70;;;14.30;70.80;;;14.13;55.15;95097.47;4973328;28;20634;-17
2023/02/18 09:18:40;;;;;;;0.70;0.70;;;14.30;70.80;;;14.13;54.95;95108.81;4972331;28;20189;-17
2023/02/18 09:21:11;;;;;;;0.60;0.60;;;14.30;70.70;;;14.15;55.15;95084.91;4973219;28;20644;-18
2023/02/18 09:23:39;;;;;;;0.60;0.60;;;14.30;70.60;;;14.07;55.24;95099.94;4972602;28;20183;-17
2023/02/18 09:26:09;;;;;;;0.45;0.45;;;14.30;70.50;;;14.07;55.34;95139.50;4972581;28;20198;-17
2023/02/18 09:28:36;;;;;;;0.60;0.60;;;14.30;70.60;;;14.06;55.39;95126.50;4972988;28;20201;-17
2023/02/18 09:31:10;;;;;;;0.50;0.50;;;14.20;70.50;;;14.04;55.41;95100.34;4972327;28;20194;-18
2023/02/18 09:33:42;;;;;;;0.50;0.50;;;14.20;70.70;;;13.99;55.45;95096.69;4972407;28;20205;-17
2023/02/18 09:36:12;;;;;;;0.70;0.70;;;14.20;71.40;;;13.95;55.91;95093.66;4973568;28;20178;-17
2023/02/18 09:38:39;;;;;;;0.70;0.70;;;14.20;70.80;;;13.98;55.45;95079.28;4976318;28;20618;-18
2023/02/18 09:41:30;;;;;;;0.70;0.70;;;14.20;70.70;;;14.11;55.62;95088.97;4976431;28;20190;-17
2023/02/18 09:44:05;;;;;;;0.60;0.60;;;14.20;70.90;;;14.30;55.43;95103.88;4976535;28;20194;-17
2023/02/18 09:46:50;;;;;;;0.50;0.50;;;14.40;70.80;;;14.36;54.51;95079.28;4976412;28;20194;-17
2023/02/18 09:49:24;;;;;;;0.70;0.70;;;14.40;70.40;;;14.43;54.11;95105.66;4976503;28;20292;-18
2023/02/18 09:51:53;;;;;;;0.70;0.70;;;14.50;69.80;;;14.47;54.74;95114.75;4975552;28;20514;-19
2023/02/18 09:54:21;;;;;;;0.70;0.70;;;14.60;70.20;;;14.54;54.06;95083.06;4975327;28;20228;-18
2023/02/18 09:56:48;;;;;;;0.40;0.40;;;14.70;69.90;;;14.61;53.63;95085.66;4976204;28;20212;-17
2023/02/18 09:59:20;;;;;;;0.60;0.60;;;14.70;69.70;;;14.69;54.24;95101.28;4976307;28;20580;-17
2023/02/18 10:01:53;;;;;;;0.60;0.60;;;14.80;70.00;;;14.68;53.42;95082.00;4975383;28;20665;-17
2023/02/18 10:04:39;;;;;;;0.50;0.50;;;14.80;69.40;;;14.73;53.43;95084.81;4975797;28;20265;-20
2023/02/18 10:07:20;;;;;;;0.50;0.50;;;14.90;69.50;;;14.74;53.54;95069.75;4975159;28;20234;-17
2023/02/18 10:09:49;;;;;;;0.50;0.50;;;14.90;69.50;;;14.87;53.20;95074.94;4975960;28;20190;-17
2023/02/18 10:12:23;;;;;;;0.50;0.50;;;15.00;69.30;;;14.96;52.74;95083.41;4976479;28;20198;-17
2023/02/18 10:14:57;;;;;;;0.40;0.40;;;15.10;69.90;;;15.04;52.67;95066.50;4975958;28;20198;-17
2023/02/18 10:17:29;;;;;;;0.50;0.50;;;15.20;68.80;;;15.11;52.16;95063.78;4944197;28;20507;-17
2023/02/18 10:19:57;;;;;;;0.70;0.70;;;15.20;68.50;;;15.20;52.74;95062.50;4959507;28;20182;-17
2023/02/18 10:22:26;;;;;;;0.60;0.60;;;15.30;68.90;;;15.31;52.52;95082.13;4975277;28;20213;-17
2023/02/18 10:24:58;;;;;;;0.63;0.63;;;15.40;68.60;;;15.34;51.45;95077.22;4975022;28;20209;-17
2023/02/18 10:27:33;;;;;;;0.50;0.50;;;15.50;68.20;;;15.33;51.52;95082.69;4975184;28;20187;-17
2023/02/18 10:30:14;;;;;;;0.50;0.50;;;15.50;67.80;;;15.35;52.11;95070.09;4976277;28;20198;-17
2023/02/18 10:32:45;;;;;;;0.60;0.60;;;15.50;68.30;;;15.35;51.79;95064.81;4975793;28;20622;-18
2023/02/18 10:35:25;;;;;;;0.50;0.50;;;15.60;68.00;;;15.38;51.63;95053.81;4974223;28;20236;-17
2023/02/18 10:38:17;;;;;;;0.60;0.60;;;15.60;67.70;;;15.36;51.84;95043.44;4974693;28;20190;-18
2023/02/18 10:41:08;;;;;;;0.60;0.60;;;15.60;68.20;;;15.39;51.25;95052.75;4975722;28;20194;-17